الصفحة الرئيسية
METAR-TAF:

METAR-TAF

مطار :

القاهرة, مصر

ميناء القاهرة الجوي

دائرة عرض: 30-08N, خط طول: 031-24E, ارتفاع: 64 متر

مراقبة الطقس الحالي

تاريخ ووقت الإصدار 24 دقيقة قبل الساعة 08:30UTC
رياح هادئة
درجة الحرارة 21°درجة مئوية
الرطوبة 46%
ضغط 1011 hPa
الرؤية: 6000 متر

METAR: HECA 220830Z 00000KT 6000 NSC 21/09 Q1011 NOSIG

زمن: 10:54 (08:54 UTC)

توقعات

تاريخ ووقت الإصدار 3ساعات و 54 دقيقة قبل الساعة 05:00UTC
التوقعات صالحة من22 الساعة 06 UTC إلى 23 الساعة 12 UTC
ريح 7 عقدة من الجنوب الغربي
الرؤية: 6000 متر
مؤقت
من 22 الساعة 06 UTC إلى 22 الساعة 08 UTC
ريح 3 عقدةمن اتجاهات متغيرة
الرؤية: 4000 متر
العجاج
أصبح
من 22 الساعة 08 UTC إلى 22 الساعة 10 UTC
الرؤية 10 كم أو أكثر
غيوم متفرقة على ارتفاع 2500 قدم

TAF: HECA 220500Z 2206/2312 23007KT 6000 NSC TEMPO 2206/2208 VRB03KT 4000 HZ BECMG 2208/2210 9999 SCT025

أرصاد الطقس والتوقعات من أكثر من 4000 مطار (تقارير الطقس للمطار METAR والتنبؤ بالطقس بالمطارTAF).

المحطات المتاحة هي النقط الصفراء والحمراء على الخريطة.

حرك المؤشر فوق النقطة لمعرفة اسم المحطة.

ثم انقر لمعرفة أرصاد وتوقعات الطقس.

لتغيير الخارطة: اضغط على الأزرار الخضراء مع رمز الصليب الأسود للتكبير. على الزر الأخضر مع شرطة للتصغير، أو على الأسهم الخضراء للخرائط المجاورة.


METAR-TAF: